createdAt,value
2023-04-17T00:01:04.393Z,10.30
2023-04-17T00:03:34.122Z,10.34
2023-04-17T00:04:43.997Z,10.07
2023-04-17T00:07:09.729Z,10.27
2023-04-17T00:09:34.009Z,10.42
2023-04-17T00:11:58.434Z,10.54
2023-04-17T00:13:07.513Z,10.44
2023-04-17T00:14:17.281Z,10.39
2023-04-17T00:17:01.534Z,10.62
2023-04-17T00:19:27.536Z,10.68
2023-04-17T00:20:36.560Z,10.48
2023-04-17T00:23:01.491Z,10.70
2023-04-17T00:25:29.013Z,10.61
2023-04-17T00:26:38.302Z,10.50
2023-04-17T00:29:04.548Z,10.58
2023-04-17T00:30:14.370Z,10.47
2023-04-17T00:31:24.085Z,10.41
2023-04-17T00:32:35.761Z,10.45
2023-04-17T00:33:46.848Z,10.38
2023-04-17T00:34:56.527Z,10.35
2023-04-17T00:37:24.178Z,10.38
2023-04-17T00:38:33.074Z,10.29
2023-04-17T00:41:18.917Z,10.43
2023-04-17T00:43:45.232Z,10.56
2023-04-17T00:46:09.976Z,10.60
2023-04-17T00:47:22.847Z,10.48
2023-04-17T00:48:35.486Z,10.52
2023-04-17T00:51:03.787Z,10.60
2023-04-17T00:53:32.308Z,10.69
2023-04-17T00:56:00.547Z,10.76
2023-04-17T00:57:10.417Z,10.59
2023-04-17T00:59:39.705Z,10.82
2023-04-17T01:02:04.875Z,10.69
2023-04-17T01:03:14.319Z,10.61
2023-04-17T01:05:39.953Z,10.64
2023-04-17T01:06:53.445Z,10.59
2023-04-17T01:09:18.526Z,10.77
2023-04-17T01:11:43.336Z,10.78
2023-04-17T01:14:21.713Z,10.91
2023-04-17T01:15:31.791Z,10.80
2023-04-17T01:18:00.364Z,10.72
2023-04-17T01:19:10.481Z,10.54
2023-04-17T01:20:21.453Z,10.45
2023-04-17T01:21:31.781Z,10.36
2023-04-17T01:22:41.023Z,10.25
2023-04-17T01:25:09.374Z,10.29
2023-04-17T01:27:38.967Z,10.22
2023-04-17T01:30:12.181Z,10.35
2023-04-17T01:31:28.546Z,10.33
2023-04-17T01:32:37.940Z,10.43
2023-04-17T01:35:02.941Z,10.58
2023-04-17T01:37:30.192Z,10.72
2023-04-17T01:39:57.386Z,10.63
2023-04-17T01:42:26.262Z,10.74
2023-04-17T01:44:55.113Z,10.70
2023-04-17T01:46:04.878Z,10.54
2023-04-17T01:47:14.592Z,10.49
2023-04-17T01:48:23.254Z,10.54
2023-04-17T01:50:48.256Z,10.59
2023-04-17T01:53:13.036Z,10.73
2023-04-17T01:55:42.247Z,10.83
2023-04-17T01:56:52.320Z,10.74
2023-04-17T01:58:02.059Z,10.72
2023-04-17T01:59:12.010Z,10.66
2023-04-17T02:00:22.875Z,10.62
2023-04-17T02:02:47.510Z,10.58
2023-04-17T02:03:57.661Z,10.26
2023-04-17T02:06:23.529Z,10.30
2023-04-17T02:08:48.707Z,10.23
2023-04-17T02:09:58.503Z,10.16
2023-04-17T02:12:23.875Z,10.45
2023-04-17T02:14:49.783Z,10.64
2023-04-17T02:15:59.790Z,10.57
2023-04-17T02:18:28.805Z,10.85
2023-04-17T02:19:38.109Z,10.71
2023-04-17T02:22:01.835Z,10.90
2023-04-17T02:23:12.830Z,10.72
2023-04-17T02:24:21.427Z,10.63
2023-04-17T02:25:31.525Z,10.55
2023-04-17T02:26:41.476Z,10.49
2023-04-17T02:29:06.458Z,10.44
2023-04-17T02:31:31.643Z,10.41
2023-04-17T02:33:56.755Z,10.47
2023-04-17T02:36:23.903Z,10.64
2023-04-17T02:38:50.310Z,10.72
2023-04-17T02:41:15.552Z,10.68
2023-04-17T02:43:39.904Z,10.64
2023-04-17T02:46:06.190Z,10.43
2023-04-17T02:48:29.807Z,10.39
2023-04-17T02:49:41.605Z,10.19
2023-04-17T02:52:05.523Z,10.32
2023-04-17T02:53:14.534Z,10.29
2023-04-17T02:55:39.760Z,10.56
2023-04-17T02:58:07.365Z,10.48
2023-04-17T03:00:32.951Z,10.60
2023-04-17T03:02:58.406Z,10.71
2023-04-17T03:05:25.244Z,10.60
2023-04-17T03:08:12.914Z,10.36
2023-04-17T03:09:28.797Z,10.26
2023-04-17T03:10:39.797Z,10.22
2023-04-17T03:13:05.806Z,10.32
2023-04-17T03:14:15.709Z,10.21
2023-04-17T03:15:24.670Z,10.29
2023-04-17T03:16:34.741Z,10.35
2023-04-17T03:19:03.320Z,10.52
2023-04-17T03:21:29.212Z,10.46
2023-04-17T03:23:53.674Z,10.42
2023-04-17T03:26:18.978Z,10.39
2023-04-17T03:27:30.407Z,10.29
2023-04-17T03:28:40.314Z,10.28
2023-04-17T03:31:04.560Z,10.35
2023-04-17T03:32:14.769Z,10.25
2023-04-17T03:33:26.280Z,10.26
2023-04-17T03:35:52.592Z,10.35
2023-04-17T03:37:03.408Z,10.19
2023-04-17T03:38:13.297Z,10.14
2023-04-17T03:39:31.853Z,10.17
2023-04-17T03:40:44.270Z,10.15
2023-04-17T03:43:09.037Z,10.23
2023-04-17T03:45:34.251Z,10.23
2023-04-17T03:46:45.305Z,10.12
2023-04-17T03:47:55.899Z,10.13
2023-04-17T03:49:05.887Z,10.13
2023-04-17T03:51:31.154Z,10.21
2023-04-17T03:53:59.016Z,10.20
2023-04-17T03:56:24.266Z,10.13
2023-04-17T03:58:51.278Z,10.14
2023-04-17T04:01:15.930Z,10.19
2023-04-17T04:02:27.395Z,10.12
2023-04-17T04:04:54.133Z,10.11
2023-04-17T04:07:22.729Z,10.14
2023-04-17T04:09:48.150Z,10.14
2023-04-17T04:12:14.749Z,10.15
2023-04-17T04:14:43.266Z,10.07
2023-04-17T04:15:53.169Z,9.98
2023-04-17T04:17:03.853Z,9.99
2023-04-17T04:18:12.952Z,9.98
2023-04-17T04:19:22.173Z,9.98
2023-04-17T04:20:32.652Z,10.00
2023-04-17T04:21:44.632Z,10.01
2023-04-17T04:22:57.846Z,10.01
2023-04-17T04:24:08.133Z,10.00
2023-04-17T04:26:35.820Z,10.06
2023-04-17T04:27:50.401Z,10.00
2023-04-17T04:29:00.984Z,10.02
2023-04-17T04:31:51.915Z,10.12
2023-04-17T04:34:18.708Z,10.12
2023-04-17T04:36:46.319Z,10.09
2023-04-17T04:39:16.245Z,10.10
2023-04-17T04:41:44.975Z,10.09
2023-04-17T04:44:11.821Z,10.10
2023-04-17T04:46:37.118Z,10.05
2023-04-17T04:47:47.381Z,9.92
2023-04-17T04:50:11.004Z,10.01
2023-04-17T04:52:35.233Z,9.96
2023-04-17T04:55:01.458Z,9.96
2023-04-17T04:57:40.514Z,9.92
2023-04-17T04:58:50.768Z,9.75
2023-04-17T05:00:01.392Z,9.63
2023-04-17T05:01:36.269Z,9.71
2023-04-17T05:04:00.776Z,9.82
2023-04-17T05:05:12.531Z,9.69
2023-04-17T05:06:21.454Z,9.70
2023-04-17T05:07:36.004Z,9.70
2023-04-17T05:10:00.237Z,9.80
2023-04-17T05:11:10.521Z,9.68
2023-04-17T05:13:38.923Z,9.73
2023-04-17T05:14:49.746Z,9.64
2023-04-17T05:17:15.258Z,9.57
2023-04-17T05:19:41.318Z,9.60
2023-04-17T05:20:52.025Z,9.50
2023-04-17T05:23:21.786Z,9.68
2023-04-17T05:25:47.500Z,9.70
2023-04-17T05:26:57.913Z,9.62
2023-04-17T05:29:29.226Z,9.65
2023-04-17T05:31:56.078Z,9.68
2023-04-17T05:33:07.561Z,9.60
2023-04-17T05:35:41.822Z,9.76
2023-04-17T05:38:07.501Z,9.79
2023-04-17T05:40:31.385Z,9.78
2023-04-17T05:42:55.855Z,9.75
2023-04-17T05:44:06.553Z,9.67
2023-04-17T05:46:33.255Z,9.77
2023-04-17T05:47:43.015Z,9.71
2023-04-17T05:50:09.375Z,9.86
2023-04-17T05:52:33.320Z,9.93
2023-04-17T05:53:45.311Z,9.79
2023-04-17T05:56:11.082Z,9.82
2023-04-17T05:57:20.023Z,9.71
2023-04-17T05:59:45.003Z,9.76
2023-04-17T06:02:11.392Z,9.72
2023-04-17T06:03:21.662Z,9.63
2023-04-17T06:04:33.080Z,9.65
2023-04-17T06:06:57.190Z,9.78
2023-04-17T06:09:23.947Z,9.85
2023-04-17T06:10:34.678Z,9.79
2023-04-17T06:11:43.420Z,9.82
2023-04-17T06:12:52.774Z,9.88
2023-04-17T06:14:02.922Z,9.92
2023-04-17T06:16:28.992Z,10.01
2023-04-17T06:18:55.438Z,9.98
2023-04-17T06:20:11.036Z,9.87
2023-04-17T06:22:39.887Z,9.91
2023-04-17T06:23:50.367Z,9.84
2023-04-17T06:26:14.465Z,10.08
2023-04-17T06:28:39.297Z,10.21
2023-04-17T06:31:03.598Z,10.16
2023-04-17T06:33:27.769Z,10.21
2023-04-17T06:34:46.034Z,10.11
2023-04-17T06:37:03.988Z,10.24
2023-04-17T06:39:28.612Z,10.30
2023-04-17T06:41:53.784Z,10.40
2023-04-17T06:44:20.117Z,10.47
2023-04-17T06:46:45.504Z,10.48
2023-04-17T06:49:09.457Z,10.55
2023-04-17T06:51:34.219Z,10.48
2023-04-17T06:52:44.496Z,10.33
2023-04-17T06:55:11.082Z,10.26
2023-04-17T06:56:20.734Z,10.12
2023-04-17T06:57:29.846Z,10.11
2023-04-17T06:59:55.879Z,10.15
2023-04-17T07:02:22.031Z,10.10
2023-04-17T07:03:31.782Z,9.98
2023-04-17T07:05:58.162Z,10.08
2023-04-17T07:08:24.184Z,10.07
2023-04-17T07:09:33.370Z,9.98
2023-04-17T07:11:58.173Z,10.14
2023-04-17T07:14:22.504Z,10.07
2023-04-17T07:15:31.170Z,9.98
2023-04-17T07:17:56.661Z,10.05
2023-04-17T07:19:06.737Z,9.93
2023-04-17T07:20:17.192Z,9.93
2023-04-17T07:22:42.526Z,10.02
2023-04-17T07:25:09.048Z,10.09
2023-04-17T07:26:18.862Z,10.01
2023-04-17T07:27:27.987Z,9.98
2023-04-17T07:28:38.225Z,9.96
2023-04-17T07:31:07.466Z,10.11
2023-04-17T07:33:31.918Z,10.14
2023-04-17T07:34:42.042Z,10.01
2023-04-17T07:35:51.187Z,10.03
2023-04-17T07:38:35.671Z,10.14
2023-04-17T07:41:07.291Z,10.19
2023-04-17T07:43:33.112Z,10.13
2023-04-17T07:45:58.652Z,10.10
2023-04-17T07:48:23.310Z,10.04
2023-04-17T07:52:05.644Z,10.10
2023-04-17T07:54:33.230Z,10.18
2023-04-17T07:57:18.220Z,10.19
2023-04-17T07:59:42.182Z,10.35
2023-04-17T08:02:07.718Z,10.32
2023-04-17T08:04:32.717Z,10.40
2023-04-17T08:07:02.997Z,10.41
2023-04-17T08:09:30.224Z,10.58
2023-04-17T08:11:57.870Z,10.75
2023-04-17T08:14:23.144Z,10.89
2023-04-17T08:16:49.733Z,10.90
2023-04-17T08:19:13.988Z,10.95
2023-04-17T08:20:24.888Z,10.85
2023-04-17T08:24:00.683Z,11.02
2023-04-17T08:26:26.830Z,11.03
2023-04-17T08:28:54.134Z,10.99
2023-04-17T08:31:23.939Z,10.95
2023-04-17T08:34:10.459Z,11.01
2023-04-17T08:35:12.167Z,10.90
2023-04-17T08:37:37.797Z,11.12
2023-04-17T08:40:11.215Z,11.14
2023-04-17T08:42:41.618Z,11.08
2023-04-17T08:45:12.336Z,11.13
2023-04-17T08:47:42.096Z,11.23
2023-04-17T08:50:16.234Z,11.15
2023-04-17T08:52:45.827Z,11.33
2023-04-17T08:55:19.474Z,11.26
2023-04-17T08:58:05.507Z,11.16
2023-04-17T09:00:34.004Z,11.31
2023-04-17T09:03:21.696Z,11.28
2023-04-17T09:06:22.791Z,11.22
2023-04-17T09:08:59.914Z,11.07
2023-04-17T09:10:09.001Z,11.04
2023-04-17T09:11:18.840Z,11.09
2023-04-17T09:13:43.278Z,11.36
2023-04-17T09:16:22.571Z,11.29
2023-04-17T09:18:50.095Z,11.23
2023-04-17T09:21:28.488Z,11.19
2023-04-17T09:23:59.646Z,11.20
2023-04-17T09:26:33.933Z,11.27
2023-04-17T09:29:09.512Z,11.32
2023-04-17T09:31:36.973Z,11.43
2023-04-17T09:34:12.409Z,11.36
2023-04-17T09:36:44.333Z,11.65
2023-04-17T09:39:21.205Z,11.78
2023-04-17T09:42:04.219Z,11.79
2023-04-17T09:43:13.259Z,11.75
2023-04-17T09:45:44.942Z,11.94
2023-04-17T09:48:12.555Z,12.03
2023-04-17T09:51:03.494Z,11.90
2023-04-17T09:52:14.472Z,11.82
2023-04-17T09:54:41.165Z,11.85
2023-04-17T09:57:08.869Z,11.93
2023-04-17T09:58:18.078Z,11.96
2023-04-17T10:00:43.661Z,12.23
2023-04-17T10:03:17.795Z,12.13
2023-04-17T10:05:46.055Z,12.36
2023-04-17T10:08:13.751Z,12.46
2023-04-17T10:09:29.321Z,12.32
2023-04-17T10:11:57.094Z,12.45
2023-04-17T10:14:36.931Z,12.53
2023-04-17T10:18:42.444Z,12.47
2023-04-17T10:21:21.549Z,12.32
2023-04-17T10:23:48.514Z,12.52
2023-04-17T10:26:35.257Z,12.64
2023-04-17T10:29:01.061Z,12.60
2023-04-17T10:32:07.724Z,12.61
2023-04-17T10:34:39.277Z,12.83
2023-04-17T10:35:53.185Z,12.81
2023-04-17T10:38:36.453Z,12.99
2023-04-17T10:41:19.971Z,13.00
2023-04-17T10:42:30.157Z,12.85
2023-04-17T10:43:42.256Z,12.64
2023-04-17T10:44:56.276Z,12.70
2023-04-17T10:47:33.069Z,13.03
2023-04-17T10:50:10.416Z,13.02
2023-04-17T10:51:28.704Z,13.00
2023-04-17T10:52:42.499Z,13.03
2023-04-17T10:53:54.846Z,13.11
2023-04-17T10:56:41.987Z,13.18
2023-04-17T10:59:20.782Z,13.29
2023-04-17T11:02:00.895Z,13.26
2023-04-17T11:03:14.938Z,13.16
2023-04-17T11:05:46.438Z,13.20
2023-04-17T11:08:12.077Z,13.43
2023-04-17T11:10:38.393Z,13.52
2023-04-17T11:11:47.355Z,13.35
2023-04-17T11:12:57.284Z,13.42
2023-04-17T11:15:27.442Z,13.62
2023-04-17T11:17:58.797Z,13.62
2023-04-17T11:20:33.458Z,13.86
2023-04-17T11:23:04.579Z,13.89
2023-04-17T11:25:30.970Z,13.33
2023-04-17T11:26:45.951Z,13.55
2023-04-17T11:27:56.745Z,13.61
2023-04-17T11:29:08.117Z,13.68
2023-04-17T11:32:11.312Z,13.84
2023-04-17T11:34:36.516Z,13.80
2023-04-17T11:37:01.960Z,14.01
2023-04-17T11:38:21.622Z,13.97
2023-04-17T11:40:56.120Z,13.94
2023-04-17T11:42:05.562Z,13.97
2023-04-17T11:43:15.644Z,14.05
2023-04-17T11:45:43.495Z,14.15
2023-04-17T11:48:13.774Z,14.11
2023-04-17T11:50:51.469Z,14.25
2023-04-17T11:53:19.886Z,14.24
2023-04-17T11:54:33.383Z,14.17
2023-04-17T11:55:43.470Z,14.18
2023-04-17T11:58:18.639Z,14.19
2023-04-17T12:01:07.212Z,14.27
2023-04-17T12:03:36.121Z,14.34
2023-04-17T12:04:45.914Z,14.27
2023-04-17T12:06:02.304Z,14.13
2023-04-17T12:09:39.466Z,14.49
2023-04-17T12:10:48.515Z,14.44
2023-04-17T12:13:15.148Z,14.61
2023-04-17T12:15:39.021Z,14.46
2023-04-17T12:16:49.984Z,14.49
2023-04-17T12:18:00.470Z,14.56
2023-04-17T12:19:10.996Z,14.65
2023-04-17T12:20:20.932Z,14.69
2023-04-17T12:22:45.805Z,14.75
2023-04-17T12:25:11.001Z,14.86
2023-04-17T12:27:37.118Z,14.89
2023-04-17T12:28:46.361Z,14.79
2023-04-17T12:31:11.126Z,14.88
2023-04-17T12:33:35.284Z,14.81
2023-04-17T12:36:02.343Z,14.99
2023-04-17T12:38:26.857Z,14.83
2023-04-17T12:40:51.034Z,14.59
2023-04-17T12:42:00.587Z,14.62
2023-04-17T12:44:27.710Z,14.66
2023-04-17T12:46:51.716Z,14.84
2023-04-17T12:49:16.246Z,14.85
2023-04-17T12:51:46.363Z,14.85
2023-04-17T12:56:34.271Z,14.97
2023-04-17T12:57:43.483Z,14.79
2023-04-17T13:00:09.589Z,14.83
2023-04-17T13:01:18.426Z,14.79
2023-04-17T13:03:42.669Z,14.84
2023-04-17T13:06:07.491Z,14.83
2023-04-17T13:08:35.141Z,14.75
2023-04-17T13:11:04.032Z,14.88
2023-04-17T13:13:30.384Z,14.92
2023-04-17T13:14:40.508Z,14.86
2023-04-17T13:17:05.728Z,15.10
2023-04-17T13:19:34.646Z,14.82
2023-04-17T13:21:58.774Z,14.86
2023-04-17T13:24:22.547Z,14.93
2023-04-17T13:26:47.797Z,14.98
2023-04-17T13:29:11.778Z,14.90
2023-04-17T13:30:21.571Z,14.88
2023-04-17T13:32:46.640Z,14.79
2023-04-17T13:35:14.638Z,14.87
2023-04-17T13:37:40.069Z,15.01
2023-04-17T13:40:09.501Z,15.05
2023-04-17T13:42:33.610Z,15.05
2023-04-17T13:44:57.595Z,15.13
2023-04-17T13:47:23.975Z,15.04
2023-04-17T13:49:49.437Z,15.16
2023-04-17T13:52:14.427Z,14.86
2023-04-17T13:54:40.536Z,14.98
2023-04-17T13:55:50.812Z,14.98
2023-04-17T13:58:15.599Z,15.18
2023-04-17T14:00:40.108Z,15.07
2023-04-17T14:03:05.279Z,15.04
2023-04-17T14:05:29.587Z,14.76
2023-04-17T14:07:53.958Z,14.81
2023-04-17T14:10:18.376Z,14.84
2023-04-17T14:11:28.786Z,14.86
2023-04-17T14:12:39.412Z,14.80
2023-04-17T14:15:06.882Z,14.70
2023-04-17T14:17:35.719Z,14.82
2023-04-17T14:20:06.289Z,14.87
2023-04-17T14:22:31.291Z,14.95
2023-04-17T14:26:05.214Z,14.98
2023-04-17T14:28:30.226Z,14.98
2023-04-17T14:30:53.933Z,15.01
2023-04-17T14:33:18.707Z,15.02
2023-04-17T14:35:42.811Z,14.86
2023-04-17T14:38:26.716Z,14.97
2023-04-17T14:40:52.795Z,15.06
2023-04-17T14:43:17.096Z,14.94
2023-04-17T14:45:41.632Z,14.90
2023-04-17T14:48:07.087Z,15.02
2023-04-17T14:50:33.034Z,14.96
2023-04-17T14:52:58.220Z,14.88
2023-04-17T14:55:23.317Z,14.97
2023-04-17T14:57:50.446Z,14.85
2023-04-17T15:00:16.481Z,14.76
2023-04-17T15:01:25.312Z,14.67
2023-04-17T15:03:53.084Z,14.89
2023-04-17T15:06:18.778Z,14.74
2023-04-17T15:08:42.515Z,14.87
2023-04-17T15:11:07.005Z,14.93
2023-04-17T15:12:16.035Z,14.70
2023-04-17T15:14:41.749Z,14.73
2023-04-17T15:17:06.560Z,14.85
2023-04-17T15:18:18.423Z,14.81
2023-04-17T15:19:27.750Z,14.85
2023-04-17T15:20:37.089Z,14.88
2023-04-17T15:23:00.760Z,14.93
2023-04-17T15:25:25.981Z,15.00
2023-04-17T15:26:38.654Z,14.89
2023-04-17T15:29:22.501Z,14.95
2023-04-17T15:31:46.390Z,14.88
2023-04-17T15:34:12.516Z,14.90
2023-04-17T15:35:21.147Z,14.77
2023-04-17T15:36:31.359Z,14.71
2023-04-17T15:37:41.375Z,14.72
2023-04-17T15:38:51.222Z,14.70
2023-04-17T15:41:15.398Z,14.57
2023-04-17T15:42:24.062Z,14.47
2023-04-17T15:43:32.838Z,14.31
2023-04-17T15:44:42.153Z,14.47
2023-04-17T15:45:58.885Z,14.32
2023-04-17T15:47:09.744Z,14.45
2023-04-17T15:49:33.600Z,14.48
2023-04-17T15:52:01.558Z,14.58
2023-04-17T15:54:27.241Z,14.43
2023-04-17T15:56:52.758Z,14.39
2023-04-17T15:59:17.594Z,14.32
2023-04-17T16:01:43.851Z,14.48
2023-04-17T16:02:52.799Z,14.38
2023-04-17T16:05:18.258Z,14.36
2023-04-17T16:07:42.917Z,14.41
2023-04-17T16:08:52.783Z,14.29
2023-04-17T16:11:17.469Z,14.44
2023-04-17T16:12:27.761Z,14.35
2023-04-17T16:14:52.965Z,14.54
2023-04-17T16:16:02.836Z,14.44
2023-04-17T16:18:27.043Z,14.58
2023-04-17T16:20:51.510Z,14.61
2023-04-17T16:23:16.240Z,14.59
2023-04-17T16:25:47.101Z,14.56
2023-04-17T16:28:13.967Z,14.50
2023-04-17T16:30:43.122Z,14.55
2023-04-17T16:33:12.681Z,14.57
2023-04-17T16:35:37.897Z,14.56
2023-04-17T16:38:02.384Z,14.57
2023-04-17T16:40:26.082Z,14.56
2023-04-17T16:42:50.627Z,14.54
2023-04-17T16:45:14.105Z,14.51
2023-04-17T16:46:35.513Z,14.31
2023-04-17T16:49:15.149Z,14.38
2023-04-17T16:51:40.223Z,14.40
2023-04-17T16:54:07.063Z,14.39
2023-04-17T16:55:16.452Z,14.29
2023-04-17T16:57:43.628Z,14.39
2023-04-17T17:00:10.489Z,14.40
2023-04-17T17:02:34.210Z,14.42
2023-04-17T17:05:00.740Z,14.41
2023-04-17T17:07:25.620Z,14.35
2023-04-17T17:08:34.251Z,14.18
2023-04-17T17:10:57.704Z,14.11
2023-04-17T17:13:23.195Z,13.97
2023-04-17T17:15:47.778Z,13.85
2023-04-17T17:18:11.564Z,14.01
2023-04-17T17:19:21.269Z,13.88
2023-04-17T17:21:45.337Z,14.06
2023-04-17T17:22:53.933Z,13.81
2023-04-17T17:24:03.716Z,13.72
2023-04-17T17:26:27.765Z,13.84
2023-04-17T17:28:52.900Z,13.76
2023-04-17T17:31:17.042Z,13.70
2023-04-17T17:32:26.365Z,13.59
2023-04-17T17:34:52.597Z,13.78
2023-04-17T17:37:18.328Z,13.89
2023-04-17T17:39:42.980Z,13.93
2023-04-17T17:42:09.521Z,13.92
2023-04-17T17:44:35.007Z,13.85
2023-04-17T17:46:59.436Z,13.80
2023-04-17T17:48:09.643Z,13.64
2023-04-17T17:49:18.867Z,13.61
2023-04-17T17:51:44.451Z,13.66
2023-04-17T17:54:08.794Z,13.80
2023-04-17T17:56:33.873Z,13.69
2023-04-17T17:57:49.490Z,13.59
2023-04-17T18:00:12.964Z,13.72
2023-04-17T18:02:38.564Z,13.72
2023-04-17T18:05:02.555Z,13.73
2023-04-17T18:07:26.632Z,13.57
2023-04-17T18:09:51.902Z,13.59
2023-04-17T18:11:01.572Z,13.42
2023-04-17T18:13:27.352Z,13.51
2023-04-17T18:15:51.903Z,13.54
2023-04-17T18:17:01.647Z,13.46
2023-04-17T18:19:25.870Z,13.48
2023-04-17T18:21:54.725Z,13.54
2023-04-17T18:24:20.017Z,13.55
2023-04-17T18:26:43.482Z,13.50
2023-04-17T18:27:52.938Z,13.38
2023-04-17T18:29:10.009Z,13.36
2023-04-17T18:30:18.868Z,13.38
2023-04-17T18:32:42.677Z,13.43
2023-04-17T18:35:08.010Z,13.25
2023-04-17T18:36:17.962Z,13.03
2023-04-17T18:37:27.703Z,13.10
2023-04-17T18:38:36.250Z,13.15
2023-04-17T18:41:00.975Z,13.23
2023-04-17T18:42:10.093Z,13.12
2023-04-17T18:44:33.726Z,13.15
2023-04-17T18:45:42.607Z,13.07
2023-04-17T18:48:08.388Z,13.19
2023-04-17T18:50:33.628Z,13.13
2023-04-17T18:53:05.325Z,13.22
2023-04-17T18:55:35.925Z,13.04
2023-04-17T18:58:02.013Z,13.20
2023-04-17T18:59:13.381Z,13.03
2023-04-17T19:01:37.957Z,13.11
2023-04-17T19:04:04.041Z,13.06
2023-04-17T19:06:30.731Z,13.03
2023-04-17T19:07:40.356Z,12.99
2023-04-17T19:10:07.184Z,12.86
2023-04-17T19:12:31.913Z,13.00
2023-04-17T19:14:57.860Z,12.87
2023-04-17T19:17:22.929Z,12.86
2023-04-17T19:18:31.846Z,12.80
2023-04-17T19:19:41.754Z,12.81
2023-04-17T19:22:06.579Z,12.99
2023-04-17T19:23:15.406Z,12.91
2023-04-17T19:25:43.941Z,13.01
2023-04-17T19:28:13.486Z,12.82
2023-04-17T19:29:23.049Z,12.75
2023-04-17T19:30:32.138Z,12.73
2023-04-17T19:31:41.505Z,12.73
2023-04-17T19:34:08.362Z,12.72
2023-04-17T19:36:32.961Z,12.63
2023-04-17T19:38:59.155Z,12.76
2023-04-17T19:41:24.244Z,12.75
2023-04-17T19:42:33.780Z,12.64
2023-04-17T19:45:01.335Z,12.69
2023-04-17T19:46:11.128Z,12.72
2023-04-17T19:47:20.212Z,12.71
2023-04-17T19:49:45.479Z,12.82
2023-04-17T19:50:55.202Z,12.65
2023-04-17T19:53:40.635Z,12.69
2023-04-17T19:56:08.657Z,12.53
2023-04-17T19:58:34.004Z,12.53
2023-04-17T20:00:59.082Z,12.47
2023-04-17T20:02:08.652Z,12.31
2023-04-17T20:03:19.720Z,12.32
2023-04-17T20:05:44.230Z,12.44
2023-04-17T20:08:08.864Z,12.52
2023-04-17T20:10:35.135Z,12.48
2023-04-17T20:12:58.957Z,12.30
2023-04-17T20:14:09.259Z,12.26
2023-04-17T20:15:20.037Z,12.22
2023-04-17T20:17:46.010Z,12.35
2023-04-17T20:18:56.381Z,12.24
2023-04-17T20:21:22.307Z,12.39
2023-04-17T20:22:31.392Z,12.24
2023-04-17T20:24:56.634Z,12.28
2023-04-17T20:27:20.181Z,12.27
2023-04-17T20:29:44.990Z,12.11
2023-04-17T20:32:15.288Z,12.26
2023-04-17T20:34:39.343Z,12.13
2023-04-17T20:35:48.970Z,12.05
2023-04-17T20:36:58.587Z,12.08
2023-04-17T20:39:22.813Z,12.17
2023-04-17T20:41:48.132Z,12.05
2023-04-17T20:44:15.793Z,12.13
2023-04-17T20:46:42.498Z,11.99
2023-04-17T20:49:06.789Z,12.13
2023-04-17T20:51:52.524Z,12.06
2023-04-17T20:54:16.238Z,11.94
2023-04-17T20:56:40.897Z,11.94
2023-04-17T20:59:04.838Z,11.92
2023-04-17T21:42:11.308Z,11.78
2023-04-17T21:44:36.723Z,11.68
2023-04-17T21:45:47.392Z,11.66
2023-04-17T21:46:56.847Z,11.66
2023-04-17T21:48:05.674Z,11.64
2023-04-17T21:49:14.669Z,11.71
2023-04-17T21:51:39.645Z,11.54
2023-04-17T21:52:49.199Z,11.41
2023-04-17T21:55:14.068Z,11.41
2023-04-17T21:57:39.679Z,11.46
2023-04-17T22:00:07.370Z,11.40
2023-04-17T22:02:31.656Z,11.38
2023-04-17T22:03:41.591Z,11.16
2023-04-17T22:06:06.389Z,11.27
2023-04-17T22:08:31.896Z,11.27
2023-04-17T22:09:40.487Z,11.08
2023-04-17T22:13:30.470Z,11.04
2023-04-17T22:15:58.512Z,11.18
2023-04-17T22:18:28.584Z,11.01
2023-04-17T22:20:54.374Z,10.90
2023-04-17T22:23:17.921Z,10.90
2023-04-17T22:24:26.503Z,10.80
2023-04-17T22:26:51.766Z,11.03
2023-04-17T22:29:15.190Z,10.94
2023-04-17T22:30:24.999Z,10.81
2023-04-17T22:32:48.486Z,10.95
2023-04-17T22:33:58.406Z,10.84
2023-04-17T22:36:23.675Z,10.81
2023-04-17T22:38:47.852Z,10.74
2023-04-17T22:41:11.760Z,10.79
2023-04-17T22:42:20.923Z,10.84
2023-04-17T22:44:45.761Z,10.82
2023-04-17T22:47:10.957Z,10.85
2023-04-17T22:49:40.417Z,10.85
2023-04-17T22:53:16.712Z,10.88
2023-04-17T22:54:26.486Z,10.62
2023-04-17T22:56:51.529Z,10.78
2023-04-17T22:58:03.018Z,10.66
2023-04-17T22:59:13.598Z,10.68
2023-04-17T23:01:39.438Z,10.54
2023-04-17T23:04:06.021Z,10.58
2023-04-17T23:05:16.337Z,10.48
2023-04-17T23:07:41.454Z,10.73
2023-04-17T23:10:07.072Z,10.67
2023-04-17T23:12:32.382Z,10.70
2023-04-17T23:13:42.634Z,10.59
2023-04-17T23:16:09.708Z,10.67
2023-04-17T23:18:37.034Z,10.70
2023-04-17T23:19:46.142Z,10.52
2023-04-17T23:20:56.299Z,10.54
2023-04-17T23:23:23.859Z,10.77
2023-04-17T23:24:34.412Z,10.52
2023-04-17T23:25:43.602Z,10.65
2023-04-17T23:28:11.833Z,10.88
2023-04-17T23:29:21.747Z,10.77
2023-04-17T23:31:46.824Z,10.82
2023-04-17T23:34:11.698Z,10.60
2023-04-17T23:36:58.969Z,10.69
2023-04-17T23:39:23.220Z,10.60
2023-04-17T23:41:51.421Z,10.49
2023-04-17T23:44:17.659Z,10.60
2023-04-17T23:45:27.277Z,10.53
2023-04-17T23:47:53.035Z,10.67
2023-04-17T23:49:03.715Z,10.38
2023-04-17T23:51:28.142Z,10.54
2023-04-17T23:53:51.777Z,10.55
2023-04-17T23:55:01.624Z,10.61
2023-04-17T23:57:25.851Z,10.64
2023-04-17T23:59:51.468Z,10.71
